Palm City, Florida
Current Conditions -  °F | °C
As of 11:15 PM on Monday 22 Dec 2014 (Local Time) from KSUA Reporting Station
Clear Clear  
Wind Chill: 68°   Ceiling: Unl
Heat Index: 68°   Visibility: 10mi
Dew Point: 66°   Wind: 3mph
Humidity: 94%   Direction: 230°SW
Pressure: 29.99"   Gusts: NA
Location:  27.16°N, 80.27°W
Report Text: KSUA 230415Z AUTO 23003KT 10SM CLR 20/19 A2999 RMK AO2
Loading
Personal Weather Stations






























Interactive Weather Map New forecast layout! Learn more

10-Day Weather Forecast

Advertisements
Track Severe Weather on mobile